sensor_id;sensor_type;location;lat;lon;timestamp;temperature;humidity
23532;DHT22;11943;52.270;20.978;2023-03-13T07:03:13;3.70;99.90
23532;DHT22;11943;52.270;20.978;2023-03-13T07:05:39;3.70;99.90
23532;DHT22;11943;52.270;20.978;2023-03-13T07:08:05;3.70;99.90
23532;DHT22;11943;52.270;20.978;2023-03-13T07:10:31;3.80;99.90
23532;DHT22;11943;52.270;20.978;2023-03-13T07:13:00;3.90;99.90
23532;DHT22;11943;52.270;20.978;2023-03-13T07:15:28;3.90;99.90
23532;DHT22;11943;52.270;20.978;2023-03-13T07:17:56;3.90;99.90
23532;DHT22;11943;52.270;20.978;2023-03-13T07:20:22;4.00;99.90
23532;DHT22;11943;52.270;20.978;2023-03-13T07:22:52;4.10;99.90
23532;DHT22;11943;52.270;20.978;2023-03-13T07:25:17;4.10;99.90
23532;DHT22;11943;52.270;20.978;2023-03-13T07:27:43;4.10;99.90
23532;DHT22;11943;52.270;20.978;2023-03-13T07:30:09;4.20;99.90
23532;DHT22;11943;52.270;20.978;2023-03-13T07:32:35;4.30;99.90
23532;DHT22;11943;52.270;20.978;2023-03-13T07:35:01;4.20;99.90
23532;DHT22;11943;52.270;20.978;2023-03-13T07:37:28;4.30;99.90
23532;DHT22;11943;52.270;20.978;2023-03-13T07:39:54;4.30;99.90
23532;DHT22;11943;52.270;20.978;2023-03-13T07:42:19;4.40;99.90
23532;DHT22;11943;52.270;20.978;2023-03-13T07:44:45;4.30;99.90
23532;DHT22;11943;52.270;20.978;2023-03-13T07:47:12;4.40;99.90
23532;DHT22;11943;52.270;20.978;2023-03-13T07:49:37;4.60;99.90
23532;DHT22;11943;52.270;20.978;2023-03-13T07:52:06;4.70;99.90
23532;DHT22;11943;52.270;20.978;2023-03-13T07:54:32;4.80;99.90
23532;DHT22;11943;52.270;20.978;2023-03-13T07:56:57;4.90;99.90
23532;DHT22;11943;52.270;20.978;2023-03-13T07:59:23;5.10;99.90
23532;DHT22;11943;52.270;20.978;2023-03-13T08:01:49;5.20;99.90
23532;DHT22;11943;52.270;20.978;2023-03-13T08:04:14;5.10;99.90
23532;DHT22;11943;52.270;20.978;2023-03-13T08:06:40;5.30;99.90
23532;DHT22;11943;52.270;20.978;2023-03-13T08:09:07;5.40;99.90
23532;DHT22;11943;52.270;20.978;2023-03-13T08:11:33;5.40;99.90
23532;DHT22;11943;52.270;20.978;2023-03-13T08:13:59;5.40;99.90
23532;DHT22;11943;52.270;20.978;2023-03-13T08:16:27;5.50;99.90
23532;DHT22;11943;52.270;20.978;2023-03-13T08:18:56;5.70;99.90
23532;DHT22;11943;52.270;20.978;2023-03-13T08:21:27;5.90;99.90
23532;DHT22;11943;52.270;20.978;2023-03-13T08:23:59;5.90;99.90
23532;DHT22;11943;52.270;20.978;2023-03-13T08:26:28;6.00;99.90
23532;DHT22;11943;52.270;20.978;2023-03-13T08:28:56;6.10;99.90
23532;DHT22;11943;52.270;20.978;2023-03-13T08:31:23;6.20;99.90
23532;DHT22;11943;52.270;20.978;2023-03-13T08:33:50;6.10;99.90
23532;DHT22;11943;52.270;20.978;2023-03-13T08:38:44;6.00;99.90
23532;DHT22;11943;52.270;20.978;2023-03-13T08:41:11;6.10;99.90
23532;DHT22;11943;52.270;20.978;2023-03-13T08:43:37;6.00;99.90
23532;DHT22;11943;52.270;20.978;2023-03-13T08:46:03;6.00;99.90
23532;DHT22;11943;52.270;20.978;2023-03-13T08:48:29;5.90;99.90
23532;DHT22;11943;52.270;20.978;2023-03-13T08:51:03;6.00;99.90
23532;DHT22;11943;52.270;20.978;2023-03-13T08:53:29;6.00;99.90
23532;DHT22;11943;52.270;20.978;2023-03-13T08:55:55;6.10;99.90
23532;DHT22;11943;52.270;20.978;2023-03-13T08:58:21;6.10;99.90
23532;DHT22;11943;52.270;20.978;2023-03-13T09:00:47;6.20;99.90
23532;DHT22;11943;52.270;20.978;2023-03-13T09:03:12;6.30;99.90
23532;DHT22;11943;52.270;20.978;2023-03-13T09:05:38;6.50;99.90
23532;DHT22;11943;52.270;20.978;2023-03-13T09:08:03;6.80;99.90
23532;DHT22;11943;52.270;20.978;2023-03-13T09:10:32;7.10;99.90
23532;DHT22;11943;52.270;20.978;2023-03-13T09:12:58;7.30;99.90
23532;DHT22;11943;52.270;20.978;2023-03-13T09:15:24;7.30;99.90
23532;DHT22;11943;52.270;20.978;2023-03-13T09:17:50;7.50;99.90
23532;DHT22;11943;52.270;20.978;2023-03-13T09:20:15;7.60;99.90
23532;DHT22;11943;52.270;20.978;2023-03-13T09:22:44;7.80;99.90
23532;DHT22;11943;52.270;20.978;2023-03-13T09:25:11;8.00;99.90
23532;DHT22;11943;52.270;20.978;2023-03-13T09:27:37;8.10;99.90
23532;DHT22;11943;52.270;20.978;2023-03-13T09:30:03;8.20;99.90
23532;DHT22;11943;52.270;20.978;2023-03-13T09:32:29;8.40;99.90
23532;DHT22;11943;52.270;20.978;2023-03-13T09:34:55;8.60;99.90
23532;DHT22;11943;52.270;20.978;2023-03-13T09:37:21;8.80;99.90
23532;DHT22;11943;52.270;20.978;2023-03-13T09:39:48;8.90;99.90
23532;DHT22;11943;52.270;20.978;2023-03-13T09:42:17;9.10;99.90
23532;DHT22;11943;52.270;20.978;2023-03-13T09:45:11;9.30;99.90
23532;DHT22;11943;52.270;20.978;2023-03-13T09:47:45;9.50;99.90
23532;DHT22;11943;52.270;20.978;2023-03-13T09:52:44;10.00;99.90
23532;DHT22;11943;52.270;20.978;2023-03-13T09:55:16;10.10;99.90
23532;DHT22;11943;52.270;20.978;2023-03-13T10:00:15;10.10;99.90
23532;DHT22;11943;52.270;20.978;2023-03-13T10:02:50;10.00;99.90
23532;DHT22;11943;52.270;20.978;2023-03-13T10:05:26;9.90;99.90
23532;DHT22;11943;52.270;20.978;2023-03-13T10:08:23;9.90;99.90
23532;DHT22;11943;52.270;20.978;2023-03-13T10:10:53;10.10;99.90
23532;DHT22;11943;52.270;20.978;2023-03-13T10:15:58;10.30;99.90
23532;DHT22;11943;52.270;20.978;2023-03-13T10:18:25;10.50;99.90
23532;DHT22;11943;52.270;20.978;2023-03-13T10:20:58;10.50;99.90
23532;DHT22;11943;52.270;20.978;2023-03-13T10:23:55;10.50;99.90
23532;DHT22;11943;52.270;20.978;2023-03-13T10:26:33;10.60;99.90
23532;DHT22;11943;52.270;20.978;2023-03-13T10:29:16;10.50;99.90
23532;DHT22;11943;52.270;20.978;2023-03-13T10:31:53;10.50;99.90
23532;DHT22;11943;52.270;20.978;2023-03-13T10:34:20;10.50;99.90
23532;DHT22;11943;52.270;20.978;2023-03-13T10:36:47;10.60;99.90
23532;DHT22;11943;52.270;20.978;2023-03-13T10:39:16;10.50;99.90
23532;DHT22;11943;52.270;20.978;2023-03-13T10:41:43;10.50;99.90
23532;DHT22;11943;52.270;20.978;2023-03-13T10:44:20;10.60;99.90
23532;DHT22;11943;52.270;20.978;2023-03-13T10:46:48;10.60;99.90
23532;DHT22;11943;52.270;20.978;2023-03-13T10:49:19;10.60;99.90
23532;DHT22;11943;52.270;20.978;2023-03-13T10:51:51;10.50;99.90
23532;DHT22;11943;52.270;20.978;2023-03-13T10:54:38;10.40;99.90
23532;DHT22;11943;52.270;20.978;2023-03-13T10:57:27;10.40;99.90
23532;DHT22;11943;52.270;20.978;2023-03-13T10:59:53;10.40;99.90
23532;DHT22;11943;52.270;20.978;2023-03-13T11:02:39;10.50;99.90
23532;DHT22;11943;52.270;20.978;2023-03-13T11:07:51;10.60;99.90
23532;DHT22;11943;52.270;20.978;2023-03-13T11:10:21;10.60;99.90
23532;DHT22;11943;52.270;20.978;2023-03-13T11:12:50;10.70;99.90
23532;DHT22;11943;52.270;20.978;2023-03-13T11:15:56;10.80;99.90
23532;DHT22;11943;52.270;20.978;2023-03-13T11:18:46;10.90;99.90
23532;DHT22;11943;52.270;20.978;2023-03-13T11:27:15;11.10;99.90
23532;DHT22;11943;52.270;20.978;2023-03-13T11:32:53;11.60;99.90
23532;DHT22;11943;52.270;20.978;2023-03-13T11:37:50;11.70;99.90
23532;DHT22;11943;52.270;20.978;2023-03-13T11:40:24;11.70;99.90
23532;DHT22;11943;52.270;20.978;2023-03-13T11:43:24;11.80;99.90
23532;DHT22;11943;52.270;20.978;2023-03-13T11:54:15;12.10;97.70
23532;DHT22;11943;52.270;20.978;2023-03-13T11:59:45;12.20;97.90
23532;DHT22;11943;52.270;20.978;2023-03-13T12:02:32;12.30;97.00
23532;DHT22;11943;52.270;20.978;2023-03-13T12:05:03;12.20;97.40
23532;DHT22;11943;52.270;20.978;2023-03-13T12:08:08;12.20;97.20
23532;DHT22;11943;52.270;20.978;2023-03-13T12:10:37;12.10;97.50
23532;DHT22;11943;52.270;20.978;2023-03-13T12:13:27;12.10;96.50
23532;DHT22;11943;52.270;20.978;2023-03-13T12:15:59;12.20;96.40
23532;DHT22;11943;52.270;20.978;2023-03-13T12:18:35;12.00;96.90
23532;DHT22;11943;52.270;20.978;2023-03-13T12:21:31;12.10;96.90
23532;DHT22;11943;52.270;20.978;2023-03-13T12:26:50;12.00;97.30
23532;DHT22;11943;52.270;20.978;2023-03-13T12:34:24;11.80;99.80
23532;DHT22;11943;52.270;20.978;2023-03-13T12:37:02;11.70;99.90
23532;DHT22;11943;52.270;20.978;2023-03-13T12:39:36;11.60;99.90
23532;DHT22;11943;52.270;20.978;2023-03-13T12:45:00;11.40;99.90
23532;DHT22;11943;52.270;20.978;2023-03-13T12:47:46;11.50;99.90
23532;DHT22;11943;52.270;20.978;2023-03-13T12:55:44;11.20;99.90
23532;DHT22;11943;52.270;20.978;2023-03-13T13:01:30;11.10;99.90
23532;DHT22;11943;52.270;20.978;2023-03-13T13:04:10;11.20;99.90
23532;DHT22;11943;52.270;20.978;2023-03-13T13:09:25;11.00;99.90
23532;DHT22;11943;52.270;20.978;2023-03-13T13:11:55;10.90;99.90
23532;DHT22;11943;52.270;20.978;2023-03-13T13:30:04;10.60;99.90
23532;DHT22;11943;52.270;20.978;2023-03-13T13:32:53;10.60;99.90
23532;DHT22;11943;52.270;20.978;2023-03-13T13:37:53;10.50;99.90
23532;DHT22;11943;52.270;20.978;2023-03-13T13:40:38;10.40;99.90
23532;DHT22;11943;52.270;20.978;2023-03-13T13:43:04;10.30;99.90
23532;DHT22;11943;52.270;20.978;2023-03-13T13:45:31;10.30;99.90
23532;DHT22;11943;52.270;20.978;2023-03-13T13:57:22;10.20;99.90
23532;DHT22;11943;52.270;20.978;2023-03-13T13:59:55;10.20;99.90
23532;DHT22;11943;52.270;20.978;2023-03-13T14:02:34;10.10;99.90
23532;DHT22;11943;52.270;20.978;2023-03-13T14:05:06;10.10;99.90
23532;DHT22;11943;52.270;20.978;2023-03-13T14:12:46;10.10;99.90
23532;DHT22;11943;52.270;20.978;2023-03-13T14:17:53;10.10;99.90
23532;DHT22;11943;52.270;20.978;2023-03-13T14:20:26;10.10;99.90
23532;DHT22;11943;52.270;20.978;2023-03-13T14:23:28;10.10;99.90
23532;DHT22;11943;52.270;20.978;2023-03-13T14:25:48;10.10;99.90
23532;DHT22;11943;52.270;20.978;2023-03-13T14:28:19;10.10;99.90
23532;DHT22;11943;52.270;20.978;2023-03-13T14:30:47;10.10;99.90
23532;DHT22;11943;52.270;20.978;2023-03-13T14:33:13;10.20;99.90
23532;DHT22;11943;52.270;20.978;2023-03-13T14:35:40;10.20;99.90
23532;DHT22;11943;52.270;20.978;2023-03-13T14:38:14;10.20;99.90
23532;DHT22;11943;52.270;20.978;2023-03-13T14:40:40;10.20;99.90
23532;DHT22;11943;52.270;20.978;2023-03-13T14:43:18;10.20;99.90
23532;DHT22;11943;52.270;20.978;2023-03-13T14:45:44;10.10;99.90
23532;DHT22;11943;52.270;20.978;2023-03-13T14:48:25;10.10;99.90
23532;DHT22;11943;52.270;20.978;2023-03-13T14:50:57;10.20;99.90
23532;DHT22;11943;52.270;20.978;2023-03-13T14:53:25;10.20;99.90
23532;DHT22;11943;52.270;20.978;2023-03-13T14:56:17;10.20;99.90
23532;DHT22;11943;52.270;20.978;2023-03-13T14:58:45;10.10;99.90
23532;DHT22;11943;52.270;20.978;2023-03-13T15:01:23;10.10;99.90
23532;DHT22;11943;52.270;20.978;2023-03-13T15:03:49;10.00;99.90
23532;DHT22;11943;52.270;20.978;2023-03-13T15:06:18;10.00;99.90
23532;DHT22;11943;52.270;20.978;2023-03-13T15:08:47;10.00;99.90
23532;DHT22;11943;52.270;20.978;2023-03-13T15:11:29;9.90;99.90
23532;DHT22;11943;52.270;20.978;2023-03-13T15:13:56;9.90;99.90
23532;DHT22;11943;52.270;20.978;2023-03-13T15:16:23;9.90;99.90
23532;DHT22;11943;52.270;20.978;2023-03-13T15:18:50;9.90;99.90
23532;DHT22;11943;52.270;20.978;2023-03-13T15:21:20;9.90;99.90
23532;DHT22;11943;52.270;20.978;2023-03-13T15:23:54;9.90;99.90
23532;DHT22;11943;52.270;20.978;2023-03-13T15:26:22;9.90;99.90
23532;DHT22;11943;52.270;20.978;2023-03-13T15:28:48;9.90;99.90
23532;DHT22;11943;52.270;20.978;2023-03-13T15:31:14;9.90;99.90
23532;DHT22;11943;52.270;20.978;2023-03-13T15:33:40;9.90;99.90
23532;DHT22;11943;52.270;20.978;2023-03-13T15:36:06;9.90;99.90
23532;DHT22;11943;52.270;20.978;2023-03-13T15:38:32;9.90;99.90
23532;DHT22;11943;52.270;20.978;2023-03-13T15:40:58;9.90;99.90
23532;DHT22;11943;52.270;20.978;2023-03-13T15:43:23;9.90;99.90
23532;DHT22;11943;52.270;20.978;2023-03-13T15:45:50;9.90;99.90
23532;DHT22;11943;52.270;20.978;2023-03-13T15:48:20;9.90;99.90
23532;DHT22;11943;52.270;20.978;2023-03-13T15:50:51;9.90;99.90
23532;DHT22;11943;52.270;20.978;2023-03-13T15:53:18;10.00;99.90
23532;DHT22;11943;52.270;20.978;2023-03-13T15:55:46;10.00;99.90
23532;DHT22;11943;52.270;20.978;2023-03-13T15:58:14;10.00;99.90
23532;DHT22;11943;52.270;20.978;2023-03-13T16:00:40;10.00;99.90
23532;DHT22;11943;52.270;20.978;2023-03-13T16:03:12;10.00;99.90
23532;DHT22;11943;52.270;20.978;2023-03-13T16:05:39;10.00;99.90
23532;DHT22;11943;52.270;20.978;2023-03-13T16:08:05;10.00;99.90
23532;DHT22;11943;52.270;20.978;2023-03-13T16:10:31;10.00;99.90
23532;DHT22;11943;52.270;20.978;2023-03-13T16:12:57;10.00;99.90
23532;DHT22;11943;52.270;20.978;2023-03-13T16:15:22;10.00;99.90
23532;DHT22;11943;52.270;20.978;2023-03-13T16:17:48;10.00;99.90
23532;DHT22;11943;52.270;20.978;2023-03-13T16:20:16;10.00;99.90
23532;DHT22;11943;52.270;20.978;2023-03-13T16:22:42;10.00;99.90
23532;DHT22;11943;52.270;20.978;2023-03-13T16:25:09;10.00;99.90
23532;DHT22;11943;52.270;20.978;2023-03-13T16:27:34;10.10;99.90
23532;DHT22;11943;52.270;20.978;2023-03-13T16:30:00;10.00;99.90
23532;DHT22;11943;52.270;20.978;2023-03-13T16:32:26;10.00;99.90
23532;DHT22;11943;52.270;20.978;2023-03-13T16:34:52;10.00;99.90
23532;DHT22;11943;52.270;20.978;2023-03-13T16:37:19;10.00;99.90
23532;DHT22;11943;52.270;20.978;2023-03-13T16:39:46;10.00;99.90
23532;DHT22;11943;52.270;20.978;2023-03-13T16:42:12;10.00;99.90
23532;DHT22;11943;52.270;20.978;2023-03-13T16:44:39;10.00;99.90
23532;DHT22;11943;52.270;20.978;2023-03-13T16:47:26;9.90;99.90
23532;DHT22;11943;52.270;20.978;2023-03-13T16:49:52;10.00;99.90
23532;DHT22;11943;52.270;20.978;2023-03-13T16:52:17;10.00;99.90
23532;DHT22;11943;52.270;20.978;2023-03-13T16:54:43;10.00;99.90
23532;DHT22;11943;52.270;20.978;2023-03-13T16:57:15;10.00;99.90
23532;DHT22;11943;52.270;20.978;2023-03-13T16:59:41;10.00;99.90
23532;DHT22;11943;52.270;20.978;2023-03-13T17:02:15;10.00;99.90
23532;DHT22;11943;52.270;20.978;2023-03-13T17:04:41;9.90;99.90
23532;DHT22;11943;52.270;20.978;2023-03-13T17:09:41;9.90;99.90
23532;DHT22;11943;52.270;20.978;2023-03-13T17:12:07;10.00;99.90
23532;DHT22;11943;52.270;20.978;2023-03-13T17:14:33;9.90;99.90
23532;DHT22;11943;52.270;20.978;2023-03-13T17:16:59;9.90;99.90
23532;DHT22;11943;52.270;20.978;2023-03-13T17:19:24;10.00;99.90
23532;DHT22;11943;52.270;20.978;2023-03-13T17:21:50;10.00;99.90
23532;DHT22;11943;52.270;20.978;2023-03-13T17:24:15;10.00;99.90
23532;DHT22;11943;52.270;20.978;2023-03-13T17:26:41;10.10;99.90
23532;DHT22;11943;52.270;20.978;2023-03-13T17:29:09;10.10;99.90
23532;DHT22;11943;52.270;20.978;2023-03-13T17:31:38;10.10;99.90
23532;DHT22;11943;52.270;20.978;2023-03-13T17:34:06;10.10;99.90
23532;DHT22;11943;52.270;20.978;2023-03-13T17:36:32;10.10;99.90
23532;DHT22;11943;52.270;20.978;2023-03-13T17:39:03;10.20;99.90
23532;DHT22;11943;52.270;20.978;2023-03-13T17:41:31;10.20;99.90
23532;DHT22;11943;52.270;20.978;2023-03-13T17:43:57;10.30;99.90
23532;DHT22;11943;52.270;20.978;2023-03-13T17:46:45;10.30;99.90
23532;DHT22;11943;52.270;20.978;2023-03-13T17:49:11;10.40;99.90
23532;DHT22;11943;52.270;20.978;2023-03-13T17:51:37;10.40;99.90
23532;DHT22;11943;52.270;20.978;2023-03-13T17:54:06;10.40;99.90
23532;DHT22;11943;52.270;20.978;2023-03-13T17:56:36;10.40;99.90
23532;DHT22;11943;52.270;20.978;2023-03-13T17:59:05;10.40;99.90
23532;DHT22;11943;52.270;20.978;2023-03-13T18:01:34;10.40;99.90
23532;DHT22;11943;52.270;20.978;2023-03-13T18:04:00;10.40;99.90
23532;DHT22;11943;52.270;20.978;2023-03-13T18:06:38;10.40;99.90
23532;DHT22;11943;52.270;20.978;2023-03-13T18:09:05;10.40;99.90
23532;DHT22;11943;52.270;20.978;2023-03-13T18:11:35;10.50;99.90
23532;DHT22;11943;52.270;20.978;2023-03-13T18:14:01;10.50;99.90
23532;DHT22;11943;52.270;20.978;2023-03-13T18:19:07;10.60;99.90
23532;DHT22;11943;52.270;20.978;2023-03-13T18:21:33;10.60;99.90
23532;DHT22;11943;52.270;20.978;2023-03-13T18:23:59;10.60;99.90
23532;DHT22;11943;52.270;20.978;2023-03-13T18:26:30;10.60;99.90
23532;DHT22;11943;52.270;20.978;2023-03-13T18:28:56;10.70;99.90
23532;DHT22;11943;52.270;20.978;2023-03-13T18:31:29;10.70;99.90
23532;DHT22;11943;52.270;20.978;2023-03-13T18:33:57;10.60;99.90
23532;DHT22;11943;52.270;20.978;2023-03-13T18:36:23;10.70;99.90
23532;DHT22;11943;52.270;20.978;2023-03-13T18:38:48;10.70;99.90
23532;DHT22;11943;52.270;20.978;2023-03-13T18:41:17;10.70;99.90
23532;DHT22;11943;52.270;20.978;2023-03-13T18:43:44;10.70;99.90
23532;DHT22;11943;52.270;20.978;2023-03-13T18:46:29;10.70;99.90
23532;DHT22;11943;52.270;20.978;2023-03-13T18:48:59;10.70;99.90
23532;DHT22;11943;52.270;20.978;2023-03-13T18:51:26;10.60;99.90
23532;DHT22;11943;52.270;20.978;2023-03-13T18:53:53;10.70;99.90
23532;DHT22;11943;52.270;20.978;2023-03-13T18:56:29;10.70;99.90
23532;DHT22;11943;52.270;20.978;2023-03-13T18:58:56;10.70;99.90
23532;DHT22;11943;52.270;20.978;2023-03-13T19:01:25;10.70;99.90
23532;DHT22;11943;52.270;20.978;2023-03-13T19:03:51;10.70;99.90
23532;DHT22;11943;52.270;20.978;2023-03-13T19:06:29;10.80;99.90
23532;DHT22;11943;52.270;20.978;2023-03-13T19:08:57;10.70;99.90
23532;DHT22;11943;52.270;20.978;2023-03-13T19:11:26;10.80;99.90
23532;DHT22;11943;52.270;20.978;2023-03-13T19:13:52;10.80;99.90
23532;DHT22;11943;52.270;20.978;2023-03-13T19:16:21;10.90;99.90
23532;DHT22;11943;52.270;20.978;2023-03-13T19:18:48;10.80;99.90
23532;DHT22;11943;52.270;20.978;2023-03-13T19:21:32;10.80;99.90
23532;DHT22;11943;52.270;20.978;2023-03-13T19:23:58;10.80;99.90
23532;DHT22;11943;52.270;20.978;2023-03-13T19:26:33;10.90;99.90
23532;DHT22;11943;52.270;20.978;2023-03-13T19:28:59;10.80;99.90
23532;DHT22;11943;52.270;20.978;2023-03-13T19:31:25;10.90;99.90
23532;DHT22;11943;52.270;20.978;2023-03-13T19:33:52;10.90;99.90
23532;DHT22;11943;52.270;20.978;2023-03-13T19:36:20;10.90;99.90
23532;DHT22;11943;52.270;20.978;2023-03-13T19:38:47;10.80;99.90
23532;DHT22;11943;52.270;20.978;2023-03-13T19:41:13;10.80;99.90
23532;DHT22;11943;52.270;20.978;2023-03-13T19:43:40;10.80;99.90
23532;DHT22;11943;52.270;20.978;2023-03-13T19:48:47;10.80;99.90
23532;DHT22;11943;52.270;20.978;2023-03-13T19:51:13;10.90;99.90
23532;DHT22;11943;52.270;20.978;2023-03-13T19:53:39;10.80;99.90
23532;DHT22;11943;52.270;20.978;2023-03-13T19:56:26;10.80;99.90
23532;DHT22;11943;52.270;20.978;2023-03-13T19:58:57;10.80;99.90
23532;DHT22;11943;52.270;20.978;2023-03-13T20:01:24;10.70;99.90
23532;DHT22;11943;52.270;20.978;2023-03-13T20:03:49;10.70;99.90
23532;DHT22;11943;52.270;20.978;2023-03-13T20:06:17;10.70;99.90
23532;DHT22;11943;52.270;20.978;2023-03-13T20:08:44;10.70;99.90
23532;DHT22;11943;52.270;20.978;2023-03-13T20:11:11;10.70;99.90
23532;DHT22;11943;52.270;20.978;2023-03-13T20:13:36;10.70;99.90
23532;DHT22;11943;52.270;20.978;2023-03-13T20:16:03;10.70;99.90
23532;DHT22;11943;52.270;20.978;2023-03-13T20:18:28;10.80;99.90
23532;DHT22;11943;52.270;20.978;2023-03-13T20:20:54;10.80;99.90
23532;DHT22;11943;52.270;20.978;2023-03-13T20:23:20;10.80;99.90
23532;DHT22;11943;52.270;20.978;2023-03-13T20:25:45;10.80;99.90
23532;DHT22;11943;52.270;20.978;2023-03-13T20:28:11;10.80;99.90
23532;DHT22;11943;52.270;20.978;2023-03-13T20:30:41;10.80;99.90
23532;DHT22;11943;52.270;20.978;2023-03-13T20:33:08;10.80;99.90
23532;DHT22;11943;52.270;20.978;2023-03-13T20:35:34;10.80;99.90
23532;DHT22;11943;52.270;20.978;2023-03-13T20:38:00;10.80;99.90
23532;DHT22;11943;52.270;20.978;2023-03-13T20:40:26;10.90;99.90
23532;DHT22;11943;52.270;20.978;2023-03-13T20:42:52;10.90;99.90
23532;DHT22;11943;52.270;20.978;2023-03-13T20:45:18;10.90;99.90
23532;DHT22;11943;52.270;20.978;2023-03-13T20:47:44;10.90;99.90
23532;DHT22;11943;52.270;20.978;2023-03-13T20:50:10;10.80;99.90
23532;DHT22;11943;52.270;20.978;2023-03-13T20:52:35;10.90;99.90
23532;DHT22;11943;52.270;20.978;2023-03-13T20:55:01;10.90;99.90
23532;DHT22;11943;52.270;20.978;2023-03-13T20:57:27;10.90;99.90
23532;DHT22;11943;52.270;20.978;2023-03-13T20:59:52;11.00;99.90
23532;DHT22;11943;52.270;20.978;2023-03-13T21:02:18;10.90;99.90
23532;DHT22;11943;52.270;20.978;2023-03-13T21:04:43;10.90;99.90
23532;DHT22;11943;52.270;20.978;2023-03-13T21:07:09;10.90;99.90
23532;DHT22;11943;52.270;20.978;2023-03-13T21:09:35;10.90;99.90
23532;DHT22;11943;52.270;20.978;2023-03-13T21:12:01;10.90;99.90
23532;DHT22;11943;52.270;20.978;2023-03-13T21:14:27;10.80;99.90
23532;DHT22;11943;52.270;20.978;2023-03-13T21:16:52;10.90;99.90
23532;DHT22;11943;52.270;20.978;2023-03-13T21:19:18;10.80;99.90
23532;DHT22;11943;52.270;20.978;2023-03-13T21:21:44;10.80;99.90
23532;DHT22;11943;52.270;20.978;2023-03-13T21:24:10;10.80;99.90
23532;DHT22;11943;52.270;20.978;2023-03-13T21:26:35;10.80;99.90
23532;DHT22;11943;52.270;20.978;2023-03-13T21:29:01;10.80;99.90
23532;DHT22;11943;52.270;20.978;2023-03-13T21:31:28;10.90;99.90
23532;DHT22;11943;52.270;20.978;2023-03-13T21:33:54;10.90;99.90
23532;DHT22;11943;52.270;20.978;2023-03-13T21:36:21;10.90;99.90
23532;DHT22;11943;52.270;20.978;2023-03-13T21:38:48;10.80;99.90
23532;DHT22;11943;52.270;20.978;2023-03-13T21:41:18;10.90;99.90
23532;DHT22;11943;52.270;20.978;2023-03-13T21:43:44;10.90;99.90
23532;DHT22;11943;52.270;20.978;2023-03-13T21:46:15;10.90;99.90
23532;DHT22;11943;52.270;20.978;2023-03-13T21:48:42;10.80;99.90
23532;DHT22;11943;52.270;20.978;2023-03-13T21:51:09;10.80;99.90
23532;DHT22;11943;52.270;20.978;2023-03-13T21:53:35;10.80;99.90
23532;DHT22;11943;52.270;20.978;2023-03-13T21:56:01;10.80;99.90
23532;DHT22;11943;52.270;20.978;2023-03-13T21:58:27;10.70;99.90
23532;DHT22;11943;52.270;20.978;2023-03-13T22:00:56;10.70;99.90
23532;DHT22;11943;52.270;20.978;2023-03-13T22:03:23;10.60;99.90
23532;DHT22;11943;52.270;20.978;2023-03-13T22:05:51;10.60;99.90
23532;DHT22;11943;52.270;20.978;2023-03-13T22:08:16;10.60;99.90
23532;DHT22;11943;52.270;20.978;2023-03-13T22:10:50;10.60;99.90
23532;DHT22;11943;52.270;20.978;2023-03-13T22:13:16;10.60;99.90
23532;DHT22;11943;52.270;20.978;2023-03-13T22:15:42;10.60;99.90
23532;DHT22;11943;52.270;20.978;2023-03-13T22:18:14;10.50;99.90
23532;DHT22;11943;52.270;20.978;2023-03-13T22:20:40;10.60;99.90
23532;DHT22;11943;52.270;20.978;2023-03-13T22:23:06;10.60;99.90
23532;DHT22;11943;52.270;20.978;2023-03-13T22:25:32;10.60;99.90
23532;DHT22;11943;52.270;20.978;2023-03-13T22:27:58;10.60;99.90
23532;DHT22;11943;52.270;20.978;2023-03-13T22:30:23;10.60;99.90
23532;DHT22;11943;52.270;20.978;2023-03-13T22:32:49;10.60;99.90
23532;DHT22;11943;52.270;20.978;2023-03-13T22:35:14;10.60;99.90
23532;DHT22;11943;52.270;20.978;2023-03-13T22:37:40;10.60;99.90
23532;DHT22;11943;52.270;20.978;2023-03-13T22:40:06;10.60;99.90
23532;DHT22;11943;52.270;20.978;2023-03-13T22:42:33;10.60;99.90
23532;DHT22;11943;52.270;20.978;2023-03-13T22:44:59;10.60;99.90
23532;DHT22;11943;52.270;20.978;2023-03-13T22:47:25;10.50;99.90
23532;DHT22;11943;52.270;20.978;2023-03-13T22:49:50;10.60;99.90
23532;DHT22;11943;52.270;20.978;2023-03-13T22:52:18;10.60;99.90
23532;DHT22;11943;52.270;20.978;2023-03-13T22:54:43;10.60;99.90
23532;DHT22;11943;52.270;20.978;2023-03-13T22:57:11;10.60;99.90
23532;DHT22;11943;52.270;20.978;2023-03-13T22:59:37;10.60;99.90
23532;DHT22;11943;52.270;20.978;2023-03-13T23:02:02;10.50;99.90
23532;DHT22;11943;52.270;20.978;2023-03-13T23:04:28;10.50;99.90
23532;DHT22;11943;52.270;20.978;2023-03-13T23:06:54;10.60;99.90
23532;DHT22;11943;52.270;20.978;2023-03-13T23:09:19;10.60;99.90
23532;DHT22;11943;52.270;20.978;2023-03-13T23:11:45;10.50;99.90
23532;DHT22;11943;52.270;20.978;2023-03-13T23:14:10;10.60;99.90
23532;DHT22;11943;52.270;20.978;2023-03-13T23:16:36;10.60;99.90
23532;DHT22;11943;52.270;20.978;2023-03-13T23:19:02;10.50;99.90
23532;DHT22;11943;52.270;20.978;2023-03-13T23:21:28;10.50;99.90
23532;DHT22;11943;52.270;20.978;2023-03-13T23:23:54;10.50;99.90
23532;DHT22;11943;52.270;20.978;2023-03-13T23:26:19;10.50;99.90
23532;DHT22;11943;52.270;20.978;2023-03-13T23:28:45;10.40;99.90
23532;DHT22;11943;52.270;20.978;2023-03-13T23:31:16;10.40;99.90
23532;DHT22;11943;52.270;20.978;2023-03-13T23:33:42;10.40;99.90
23532;DHT22;11943;52.270;20.978;2023-03-13T23:36:11;10.30;99.90
23532;DHT22;11943;52.270;20.978;2023-03-13T23:38:36;10.30;99.90
23532;DHT22;11943;52.270;20.978;2023-03-13T23:41:07;10.30;99.90
23532;DHT22;11943;52.270;20.978;2023-03-13T23:43:33;10.30;99.90
23532;DHT22;11943;52.270;20.978;2023-03-13T23:45:59;10.30;99.90
23532;DHT22;11943;52.270;20.978;2023-03-13T23:48:25;10.30;99.90
23532;DHT22;11943;52.270;20.978;2023-03-13T23:50:51;10.20;99.90
23532;DHT22;11943;52.270;20.978;2023-03-13T23:53:16;10.20;99.90
23532;DHT22;11943;52.270;20.978;2023-03-13T23:55:42;10.20;99.90
23532;DHT22;11943;52.270;20.978;2023-03-13T23:58:08;10.10;99.90
